sensor_id;sensor_type;location;lat;lon;timestamp;temperature;humidity
33827;DHT22;20128;45.582;5.298;2023-05-17T00:02:17;13.50;69.40
33827;DHT22;20128;45.582;5.298;2023-05-17T00:04:44;13.50;69.40
33827;DHT22;20128;45.582;5.298;2023-05-17T00:07:12;13.50;69.60
33827;DHT22;20128;45.582;5.298;2023-05-17T00:09:37;13.50;69.50
33827;DHT22;20128;45.582;5.298;2023-05-17T00:12:03;13.50;69.70
33827;DHT22;20128;45.582;5.298;2023-05-17T00:14:29;13.50;69.80
33827;DHT22;20128;45.582;5.298;2023-05-17T00:16:54;13.50;70.00
33827;DHT22;20128;45.582;5.298;2023-05-17T00:19:20;13.40;70.10
33827;DHT22;20128;45.582;5.298;2023-05-17T00:21:46;13.40;70.50
33827;DHT22;20128;45.582;5.298;2023-05-17T00:24:11;13.40;70.70
33827;DHT22;20128;45.582;5.298;2023-05-17T00:26:37;13.30;71.00
33827;DHT22;20128;45.582;5.298;2023-05-17T00:29:03;13.30;71.10
33827;DHT22;20128;45.582;5.298;2023-05-17T00:31:28;13.30;71.20
33827;DHT22;20128;45.582;5.298;2023-05-17T00:33:54;13.20;71.30
33827;DHT22;20128;45.582;5.298;2023-05-17T00:36:20;13.20;71.70
33827;DHT22;20128;45.582;5.298;2023-05-17T00:38:45;13.30;71.90
33827;DHT22;20128;45.582;5.298;2023-05-17T00:41:11;13.20;72.00
33827;DHT22;20128;45.582;5.298;2023-05-17T00:43:38;13.20;72.10
33827;DHT22;20128;45.582;5.298;2023-05-17T00:46:03;13.20;72.20
33827;DHT22;20128;45.582;5.298;2023-05-17T00:48:29;13.20;72.50
33827;DHT22;20128;45.582;5.298;2023-05-17T00:50:55;13.20;72.60
33827;DHT22;20128;45.582;5.298;2023-05-17T00:53:22;13.20;72.80
33827;DHT22;20128;45.582;5.298;2023-05-17T00:55:48;13.10;72.60
33827;DHT22;20128;45.582;5.298;2023-05-17T00:58:14;13.10;72.80
33827;DHT22;20128;45.582;5.298;2023-05-17T01:00:41;13.10;73.00
33827;DHT22;20128;45.582;5.298;2023-05-17T01:03:07;13.10;73.20
33827;DHT22;20128;45.582;5.298;2023-05-17T01:05:33;13.10;73.20
33827;DHT22;20128;45.582;5.298;2023-05-17T01:07:58;13.10;73.20
33827;DHT22;20128;45.582;5.298;2023-05-17T01:10:34;13.10;73.40
33827;DHT22;20128;45.582;5.298;2023-05-17T01:13:32;13.10;73.20
33827;DHT22;20128;45.582;5.298;2023-05-17T01:18:57;13.10;73.10
33827;DHT22;20128;45.582;5.298;2023-05-17T01:26:52;13.00;73.20
33827;DHT22;20128;45.582;5.298;2023-05-17T01:29:23;12.90;73.10
33827;DHT22;20128;45.582;5.298;2023-05-17T01:31:52;12.90;73.00
33827;DHT22;20128;45.582;5.298;2023-05-17T01:34:25;12.90;72.90
33827;DHT22;20128;45.582;5.298;2023-05-17T01:36:51;12.90;72.60
33827;DHT22;20128;45.582;5.298;2023-05-17T01:39:16;12.90;72.70
33827;DHT22;20128;45.582;5.298;2023-05-17T01:41:46;12.80;72.90
33827;DHT22;20128;45.582;5.298;2023-05-17T01:44:23;12.80;72.70
33827;DHT22;20128;45.582;5.298;2023-05-17T01:46:57;12.80;72.40
33827;DHT22;20128;45.582;5.298;2023-05-17T01:49:37;12.80;72.60
33827;DHT22;20128;45.582;5.298;2023-05-17T01:55:31;12.70;72.20
33827;DHT22;20128;45.582;5.298;2023-05-17T01:58:01;12.70;72.60
33827;DHT22;20128;45.582;5.298;2023-05-17T02:00:28;12.60;72.70
33827;DHT22;20128;45.582;5.298;2023-05-17T02:02:54;12.70;72.80
33827;DHT22;20128;45.582;5.298;2023-05-17T02:05:20;12.70;72.20
33827;DHT22;20128;45.582;5.298;2023-05-17T02:07:45;12.60;72.10
33827;DHT22;20128;45.582;5.298;2023-05-17T02:10:11;12.60;72.10
33827;DHT22;20128;45.582;5.298;2023-05-17T02:12:37;12.60;71.90
33827;DHT22;20128;45.582;5.298;2023-05-17T02:15:03;12.50;72.20
33827;DHT22;20128;45.582;5.298;2023-05-17T02:17:29;12.50;72.40
33827;DHT22;20128;45.582;5.298;2023-05-17T02:19:55;12.50;72.10
33827;DHT22;20128;45.582;5.298;2023-05-17T02:22:20;12.50;72.10
33827;DHT22;20128;45.582;5.298;2023-05-17T02:24:46;12.50;72.20
33827;DHT22;20128;45.582;5.298;2023-05-17T02:27:13;12.50;72.20
33827;DHT22;20128;45.582;5.298;2023-05-17T02:29:38;12.50;72.00
33827;DHT22;20128;45.582;5.298;2023-05-17T02:32:04;12.40;71.80
33827;DHT22;20128;45.582;5.298;2023-05-17T02:34:30;12.40;71.80
33827;DHT22;20128;45.582;5.298;2023-05-17T02:36:56;12.40;71.60
33827;DHT22;20128;45.582;5.298;2023-05-17T02:39:21;12.40;71.50
33827;DHT22;20128;45.582;5.298;2023-05-17T02:41:48;12.30;71.60
33827;DHT22;20128;45.582;5.298;2023-05-17T02:44:13;12.30;71.50
33827;DHT22;20128;45.582;5.298;2023-05-17T02:46:40;12.30;71.80
33827;DHT22;20128;45.582;5.298;2023-05-17T02:49:06;12.30;71.70
33827;DHT22;20128;45.582;5.298;2023-05-17T02:51:31;12.30;71.60
33827;DHT22;20128;45.582;5.298;2023-05-17T02:53:57;12.30;71.30
33827;DHT22;20128;45.582;5.298;2023-05-17T02:56:22;12.20;71.20
33827;DHT22;20128;45.582;5.298;2023-05-17T02:58:48;12.20;71.60
33827;DHT22;20128;45.582;5.298;2023-05-17T03:01:14;12.20;71.60
33827;DHT22;20128;45.582;5.298;2023-05-17T03:03:39;12.20;71.50
33827;DHT22;20128;45.582;5.298;2023-05-17T03:06:05;12.20;72.10
33827;DHT22;20128;45.582;5.298;2023-05-17T03:08:31;12.30;71.60
33827;DHT22;20128;45.582;5.298;2023-05-17T03:10:56;12.20;71.20
33827;DHT22;20128;45.582;5.298;2023-05-17T03:13:22;12.20;70.90
33827;DHT22;20128;45.582;5.298;2023-05-17T03:15:47;12.20;71.00
33827;DHT22;20128;45.582;5.298;2023-05-17T03:18:13;12.20;71.20
33827;DHT22;20128;45.582;5.298;2023-05-17T03:20:39;12.20;70.70
33827;DHT22;20128;45.582;5.298;2023-05-17T03:23:04;12.10;70.30
33827;DHT22;20128;45.582;5.298;2023-05-17T03:25:30;12.10;70.80
33827;DHT22;20128;45.582;5.298;2023-05-17T03:27:56;12.00;70.70
33827;DHT22;20128;45.582;5.298;2023-05-17T03:30:21;12.00;70.80
33827;DHT22;20128;45.582;5.298;2023-05-17T03:32:47;12.00;70.90
33827;DHT22;20128;45.582;5.298;2023-05-17T03:35:12;12.00;71.20
33827;DHT22;20128;45.582;5.298;2023-05-17T03:37:38;11.90;71.40
33827;DHT22;20128;45.582;5.298;2023-05-17T03:40:04;11.90;70.30
33827;DHT22;20128;45.582;5.298;2023-05-17T03:42:30;11.90;70.40
33827;DHT22;20128;45.582;5.298;2023-05-17T03:44:56;11.90;70.80
33827;DHT22;20128;45.582;5.298;2023-05-17T03:47:22;11.90;71.10
33827;DHT22;20128;45.582;5.298;2023-05-17T03:49:48;11.90;71.20
33827;DHT22;20128;45.582;5.298;2023-05-17T03:52:14;11.90;71.30
33827;DHT22;20128;45.582;5.298;2023-05-17T03:54:40;11.90;70.40
33827;DHT22;20128;45.582;5.298;2023-05-17T03:57:05;11.90;70.20
33827;DHT22;20128;45.582;5.298;2023-05-17T03:59:31;12.00;70.60
33827;DHT22;20128;45.582;5.298;2023-05-17T04:01:57;12.00;70.00
33827;DHT22;20128;45.582;5.298;2023-05-17T04:04:22;11.90;69.80
33827;DHT22;20128;45.582;5.298;2023-05-17T04:06:48;11.80;69.90
33827;DHT22;20128;45.582;5.298;2023-05-17T04:09:14;11.80;70.30
33827;DHT22;20128;45.582;5.298;2023-05-17T04:11:40;11.70;70.60
33827;DHT22;20128;45.582;5.298;2023-05-17T04:14:06;11.70;70.60
33827;DHT22;20128;45.582;5.298;2023-05-17T04:16:32;11.70;70.60
33827;DHT22;20128;45.582;5.298;2023-05-17T04:18:59;11.60;70.90
33827;DHT22;20128;45.582;5.298;2023-05-17T04:21:25;11.60;70.80
33827;DHT22;20128;45.582;5.298;2023-05-17T04:23:51;11.60;71.20
33827;DHT22;20128;45.582;5.298;2023-05-17T04:26:17;11.70;70.90
33827;DHT22;20128;45.582;5.298;2023-05-17T04:28:43;11.60;70.70
33827;DHT22;20128;45.582;5.298;2023-05-17T04:31:09;11.60;71.00
33827;DHT22;20128;45.582;5.298;2023-05-17T04:33:35;11.60;71.10
33827;DHT22;20128;45.582;5.298;2023-05-17T04:36:01;11.50;70.90
33827;DHT22;20128;45.582;5.298;2023-05-17T04:38:28;11.50;71.30
33827;DHT22;20128;45.582;5.298;2023-05-17T04:40:59;11.50;71.50
33827;DHT22;20128;45.582;5.298;2023-05-17T04:43:25;11.50;71.40
33827;DHT22;20128;45.582;5.298;2023-05-17T04:45:55;11.50;71.30
33827;DHT22;20128;45.582;5.298;2023-05-17T04:48:22;11.60;71.50
33827;DHT22;20128;45.582;5.298;2023-05-17T04:50:47;11.60;71.90
33827;DHT22;20128;45.582;5.298;2023-05-17T04:53:13;11.60;71.40
33827;DHT22;20128;45.582;5.298;2023-05-17T04:55:40;11.70;71.80
33827;DHT22;20128;45.582;5.298;2023-05-17T04:58:05;11.70;71.30
33827;DHT22;20128;45.582;5.298;2023-05-17T05:00:31;11.70;71.40
33827;DHT22;20128;45.582;5.298;2023-05-17T05:02:57;11.70;71.40
33827;DHT22;20128;45.582;5.298;2023-05-17T05:05:23;11.70;71.10
33827;DHT22;20128;45.582;5.298;2023-05-17T05:07:50;11.70;70.40
33827;DHT22;20128;45.582;5.298;2023-05-17T05:10:15;11.70;70.70
33827;DHT22;20128;45.582;5.298;2023-05-17T05:12:41;11.70;70.80
33827;DHT22;20128;45.582;5.298;2023-05-17T05:15:07;11.60;71.00
33827;DHT22;20128;45.582;5.298;2023-05-17T05:17:33;11.60;70.90
33827;DHT22;20128;45.582;5.298;2023-05-17T05:19:59;11.70;70.80
33827;DHT22;20128;45.582;5.298;2023-05-17T05:22:25;11.60;71.30
33827;DHT22;20128;45.582;5.298;2023-05-17T05:24:51;11.70;71.30
33827;DHT22;20128;45.582;5.298;2023-05-17T05:27:16;11.60;71.00
33827;DHT22;20128;45.582;5.298;2023-05-17T05:29:42;11.70;70.80
33827;DHT22;20128;45.582;5.298;2023-05-17T05:32:08;11.60;71.40
33827;DHT22;20128;45.582;5.298;2023-05-17T05:34:33;11.60;70.80
33827;DHT22;20128;45.582;5.298;2023-05-17T05:36:59;11.60;71.20
33827;DHT22;20128;45.582;5.298;2023-05-17T05:39:25;11.60;71.40
33827;DHT22;20128;45.582;5.298;2023-05-17T05:41:52;11.60;71.60
33827;DHT22;20128;45.582;5.298;2023-05-17T05:44:17;11.50;71.20
33827;DHT22;20128;45.582;5.298;2023-05-17T05:46:43;11.60;71.80
33827;DHT22;20128;45.582;5.298;2023-05-17T05:49:09;11.60;71.90
33827;DHT22;20128;45.582;5.298;2023-05-17T05:51:36;11.60;71.20
33827;DHT22;20128;45.582;5.298;2023-05-17T05:54:02;11.70;71.10
33827;DHT22;20128;45.582;5.298;2023-05-17T05:56:27;11.70;70.90
33827;DHT22;20128;45.582;5.298;2023-05-17T05:58:56;11.70;70.70
33827;DHT22;20128;45.582;5.298;2023-05-17T06:01:22;11.70;70.90
33827;DHT22;20128;45.582;5.298;2023-05-17T06:03:49;11.60;71.00
33827;DHT22;20128;45.582;5.298;2023-05-17T06:06:15;11.70;70.80
33827;DHT22;20128;45.582;5.298;2023-05-17T06:08:44;11.70;70.70
33827;DHT22;20128;45.582;5.298;2023-05-17T06:11:12;11.70;71.20
33827;DHT22;20128;45.582;5.298;2023-05-17T06:13:38;11.80;71.30
33827;DHT22;20128;45.582;5.298;2023-05-17T06:16:04;11.90;70.90
33827;DHT22;20128;45.582;5.298;2023-05-17T06:18:30;12.00;71.40
33827;DHT22;20128;45.582;5.298;2023-05-17T06:20:56;12.10;70.30
33827;DHT22;20128;45.582;5.298;2023-05-17T06:23:22;12.10;70.30
33827;DHT22;20128;45.582;5.298;2023-05-17T06:25:47;12.20;70.30
33827;DHT22;20128;45.582;5.298;2023-05-17T06:28:13;12.30;70.00
33827;DHT22;20128;45.582;5.298;2023-05-17T06:30:39;12.30;70.40
33827;DHT22;20128;45.582;5.298;2023-05-17T06:33:05;12.40;70.70
33827;DHT22;20128;45.582;5.298;2023-05-17T06:35:30;12.40;69.50
33827;DHT22;20128;45.582;5.298;2023-05-17T06:37:56;12.50;69.60
33827;DHT22;20128;45.582;5.298;2023-05-17T06:40:22;12.60;69.30
33827;DHT22;20128;45.582;5.298;2023-05-17T06:42:47;12.70;69.50
33827;DHT22;20128;45.582;5.298;2023-05-17T06:48:35;12.70;69.00
33827;DHT22;20128;45.582;5.298;2023-05-17T06:51:01;12.80;68.90
33827;DHT22;20128;45.582;5.298;2023-05-17T06:53:26;12.90;68.90
33827;DHT22;20128;45.582;5.298;2023-05-17T06:55:52;13.00;68.90
33827;DHT22;20128;45.582;5.298;2023-05-17T06:58:18;13.00;68.40
33827;DHT22;20128;45.582;5.298;2023-05-17T07:00:44;13.10;68.50
33827;DHT22;20128;45.582;5.298;2023-05-17T07:03:09;13.10;67.30
33827;DHT22;20128;45.582;5.298;2023-05-17T07:05:35;13.10;67.90
33827;DHT22;20128;45.582;5.298;2023-05-17T07:08:01;13.10;67.60
33827;DHT22;20128;45.582;5.298;2023-05-17T07:10:28;13.20;67.60
33827;DHT22;20128;45.582;5.298;2023-05-17T07:12:53;13.20;67.80
33827;DHT22;20128;45.582;5.298;2023-05-17T07:15:20;13.30;67.30
33827;DHT22;20128;45.582;5.298;2023-05-17T07:17:46;13.20;67.00
33827;DHT22;20128;45.582;5.298;2023-05-17T07:20:12;13.20;67.10
33827;DHT22;20128;45.582;5.298;2023-05-17T07:22:39;13.20;67.30
33827;DHT22;20128;45.582;5.298;2023-05-17T07:25:05;13.30;67.50
33827;DHT22;20128;45.582;5.298;2023-05-17T07:27:31;13.30;66.90
33827;DHT22;20128;45.582;5.298;2023-05-17T07:29:57;13.30;66.80
33827;DHT22;20128;45.582;5.298;2023-05-17T07:32:23;13.30;67.00
33827;DHT22;20128;45.582;5.298;2023-05-17T07:34:48;13.40;67.10
33827;DHT22;20128;45.582;5.298;2023-05-17T07:37:14;13.40;66.90
33827;DHT22;20128;45.582;5.298;2023-05-17T07:39:41;13.40;66.60
33827;DHT22;20128;45.582;5.298;2023-05-17T07:42:07;13.40;67.00
33827;DHT22;20128;45.582;5.298;2023-05-17T07:44:33;13.50;67.30
33827;DHT22;20128;45.582;5.298;2023-05-17T07:46:58;13.60;66.60
33827;DHT22;20128;45.582;5.298;2023-05-17T07:49:26;13.60;66.80
33827;DHT22;20128;45.582;5.298;2023-05-17T07:51:51;13.70;67.10
33827;DHT22;20128;45.582;5.298;2023-05-17T07:54:26;13.80;66.50
33827;DHT22;20128;45.582;5.298;2023-05-17T07:56:52;13.80;65.20
33827;DHT22;20128;45.582;5.298;2023-05-17T07:59:23;13.90;65.00
33827;DHT22;20128;45.582;5.298;2023-05-17T08:01:49;13.90;64.50
33827;DHT22;20128;45.582;5.298;2023-05-17T08:04:15;14.00;65.00
33827;DHT22;20128;45.582;5.298;2023-05-17T08:06:42;14.10;65.60
33827;DHT22;20128;45.582;5.298;2023-05-17T08:09:08;14.10;65.70
33827;DHT22;20128;45.582;5.298;2023-05-17T08:11:33;14.20;65.60
33827;DHT22;20128;45.582;5.298;2023-05-17T08:14:02;14.40;65.70
33827;DHT22;20128;45.582;5.298;2023-05-17T08:16:28;14.60;64.10
33827;DHT22;20128;45.582;5.298;2023-05-17T08:18:54;14.60;63.20
33827;DHT22;20128;45.582;5.298;2023-05-17T08:21:20;14.60;63.60
33827;DHT22;20128;45.582;5.298;2023-05-17T08:23:47;14.70;63.80
33827;DHT22;20128;45.582;5.298;2023-05-17T08:26:12;14.80;63.80
33827;DHT22;20128;45.582;5.298;2023-05-17T08:28:38;14.90;63.10
33827;DHT22;20128;45.582;5.298;2023-05-17T08:31:05;15.00;63.80
33827;DHT22;20128;45.582;5.298;2023-05-17T08:33:31;15.10;62.70
33827;DHT22;20128;45.582;5.298;2023-05-17T08:35:57;15.20;62.70
33827;DHT22;20128;45.582;5.298;2023-05-17T08:38:25;15.30;63.40
33827;DHT22;20128;45.582;5.298;2023-05-17T08:40:55;15.40;62.60
33827;DHT22;20128;45.582;5.298;2023-05-17T08:43:21;15.50;61.90
33827;DHT22;20128;45.582;5.298;2023-05-17T08:45:51;15.70;62.30
33827;DHT22;20128;45.582;5.298;2023-05-17T08:48:17;15.70;62.20
33827;DHT22;20128;45.582;5.298;2023-05-17T08:50:46;15.90;61.10
33827;DHT22;20128;45.582;5.298;2023-05-17T08:53:12;15.90;61.30
33827;DHT22;20128;45.582;5.298;2023-05-17T08:55:44;16.00;60.70
33827;DHT22;20128;45.582;5.298;2023-05-17T08:58:12;16.00;60.20
33827;DHT22;20128;45.582;5.298;2023-05-17T09:00:39;16.10;60.60
33827;DHT22;20128;45.582;5.298;2023-05-17T09:03:05;16.10;60.30
33827;DHT22;20128;45.582;5.298;2023-05-17T09:05:30;16.20;60.50
33827;DHT22;20128;45.582;5.298;2023-05-17T09:07:57;16.20;60.30
33827;DHT22;20128;45.582;5.298;2023-05-17T09:10:23;16.30;59.90
33827;DHT22;20128;45.582;5.298;2023-05-17T09:12:49;16.30;60.10
33827;DHT22;20128;45.582;5.298;2023-05-17T09:15:17;16.40;59.70
33827;DHT22;20128;45.582;5.298;2023-05-17T09:17:50;16.50;58.30
33827;DHT22;20128;45.582;5.298;2023-05-17T09:20:27;16.60;59.40
33827;DHT22;20128;45.582;5.298;2023-05-17T09:23:05;16.60;58.80
33827;DHT22;20128;45.582;5.298;2023-05-17T09:25:32;16.70;58.20
33827;DHT22;20128;45.582;5.298;2023-05-17T09:28:02;16.70;58.80
33827;DHT22;20128;45.582;5.298;2023-05-17T09:30:32;16.80;58.70
33827;DHT22;20128;45.582;5.298;2023-05-17T09:33:07;17.00;58.40
33827;DHT22;20128;45.582;5.298;2023-05-17T09:35:34;17.10;58.20
33827;DHT22;20128;45.582;5.298;2023-05-17T09:38:11;17.20;58.20
33827;DHT22;20128;45.582;5.298;2023-05-17T09:40:38;17.20;57.20
33827;DHT22;20128;45.582;5.298;2023-05-17T09:43:04;17.20;58.20
33827;DHT22;20128;45.582;5.298;2023-05-17T09:45:34;17.30;57.70
33827;DHT22;20128;45.582;5.298;2023-05-17T09:48:13;17.30;57.60
33827;DHT22;20128;45.582;5.298;2023-05-17T09:50:49;17.30;57.00
33827;DHT22;20128;45.582;5.298;2023-05-17T09:53:29;17.40;57.20
33827;DHT22;20128;45.582;5.298;2023-05-17T09:55:57;17.40;57.10
33827;DHT22;20128;45.582;5.298;2023-05-17T09:58:24;17.40;56.70
33827;DHT22;20128;45.582;5.298;2023-05-17T10:00:52;17.30;56.60
33827;DHT22;20128;45.582;5.298;2023-05-17T10:03:19;17.30;56.80
33827;DHT22;20128;45.582;5.298;2023-05-17T10:05:45;17.10;57.10
33827;DHT22;20128;45.582;5.298;2023-05-17T10:08:13;17.10;57.40
33827;DHT22;20128;45.582;5.298;2023-05-17T10:10:42;17.00;58.10
33827;DHT22;20128;45.582;5.298;2023-05-17T10:13:10;17.00;58.30
33827;DHT22;20128;45.582;5.298;2023-05-17T10:15:37;17.00;58.20
33827;DHT22;20128;45.582;5.298;2023-05-17T10:18:05;17.00;58.30
33827;DHT22;20128;45.582;5.298;2023-05-17T10:20:32;16.90;57.80
33827;DHT22;20128;45.582;5.298;2023-05-17T10:22:59;16.90;58.40
33827;DHT22;20128;45.582;5.298;2023-05-17T10:25:28;16.90;58.30
33827;DHT22;20128;45.582;5.298;2023-05-17T10:27:54;16.90;58.00
33827;DHT22;20128;45.582;5.298;2023-05-17T10:30:20;16.80;58.30
33827;DHT22;20128;45.582;5.298;2023-05-17T10:32:48;16.80;58.80
33827;DHT22;20128;45.582;5.298;2023-05-17T10:35:14;16.90;58.90
33827;DHT22;20128;45.582;5.298;2023-05-17T10:37:41;16.90;58.60
33827;DHT22;20128;45.582;5.298;2023-05-17T10:40:08;16.90;58.90
33827;DHT22;20128;45.582;5.298;2023-05-17T10:42:45;16.90;58.50
33827;DHT22;20128;45.582;5.298;2023-05-17T10:45:12;16.90;58.60
33827;DHT22;20128;45.582;5.298;2023-05-17T10:47:39;16.80;58.10
33827;DHT22;20128;45.582;5.298;2023-05-17T10:50:14;16.80;58.80
33827;DHT22;20128;45.582;5.298;2023-05-17T10:52:47;16.90;59.10
33827;DHT22;20128;45.582;5.298;2023-05-17T10:55:19;16.90;59.50
33827;DHT22;20128;45.582;5.298;2023-05-17T10:58:07;16.90;59.10
33827;DHT22;20128;45.582;5.298;2023-05-17T11:00:39;17.00;58.60
33827;DHT22;20128;45.582;5.298;2023-05-17T11:03:25;17.00;58.00
33827;DHT22;20128;45.582;5.298;2023-05-17T11:08:35;16.90;57.80
33827;DHT22;20128;45.582;5.298;2023-05-17T11:11:12;16.90;57.70
33827;DHT22;20128;45.582;5.298;2023-05-17T11:13:51;16.90;57.80
33827;DHT22;20128;45.582;5.298;2023-05-17T11:16:20;16.90;57.80
33827;DHT22;20128;45.582;5.298;2023-05-17T11:18:50;16.90;57.60
33827;DHT22;20128;45.582;5.298;2023-05-17T11:21:17;16.90;57.90
33827;DHT22;20128;45.582;5.298;2023-05-17T11:23:44;17.00;58.20
33827;DHT22;20128;45.582;5.298;2023-05-17T11:26:32;17.10;58.40
33827;DHT22;20128;45.582;5.298;2023-05-17T11:29:05;17.20;57.90
33827;DHT22;20128;45.582;5.298;2023-05-17T11:31:35;17.20;56.60
33827;DHT22;20128;45.582;5.298;2023-05-17T11:34:04;17.20;56.20
33827;DHT22;20128;45.582;5.298;2023-05-17T11:36:32;17.20;56.60
33827;DHT22;20128;45.582;5.298;2023-05-17T11:39:14;17.20;56.40
33827;DHT22;20128;45.582;5.298;2023-05-17T11:41:53;17.20;56.50
33827;DHT22;20128;45.582;5.298;2023-05-17T11:44:31;17.20;56.10
33827;DHT22;20128;45.582;5.298;2023-05-17T11:47:01;17.10;56.60
33827;DHT22;20128;45.582;5.298;2023-05-17T11:49:30;17.10;56.80
33827;DHT22;20128;45.582;5.298;2023-05-17T11:51:56;17.00;57.30
33827;DHT22;20128;45.582;5.298;2023-05-17T11:54:24;17.10;57.30
33827;DHT22;20128;45.582;5.298;2023-05-17T11:56:52;17.00;57.40
33827;DHT22;20128;45.582;5.298;2023-05-17T11:59:19;17.00;56.80
33827;DHT22;20128;45.582;5.298;2023-05-17T12:01:45;17.00;56.80
33827;DHT22;20128;45.582;5.298;2023-05-17T12:04:11;17.10;56.90
33827;DHT22;20128;45.582;5.298;2023-05-17T12:06:38;17.10;56.50
33827;DHT22;20128;45.582;5.298;2023-05-17T12:09:03;17.10;56.90
33827;DHT22;20128;45.582;5.298;2023-05-17T12:11:35;17.00;57.00
33827;DHT22;20128;45.582;5.298;2023-05-17T12:14:01;17.10;57.40
33827;DHT22;20128;45.582;5.298;2023-05-17T12:16:28;17.10;57.70
33827;DHT22;20128;45.582;5.298;2023-05-17T12:18:54;17.10;57.60
33827;DHT22;20128;45.582;5.298;2023-05-17T12:21:22;17.10;57.40
33827;DHT22;20128;45.582;5.298;2023-05-17T12:23:50;17.10;57.50
33827;DHT22;20128;45.582;5.298;2023-05-17T12:26:21;17.20;57.30
33827;DHT22;20128;45.582;5.298;2023-05-17T12:28:54;17.20;57.00
33827;DHT22;20128;45.582;5.298;2023-05-17T12:31:25;17.10;57.10
33827;DHT22;20128;45.582;5.298;2023-05-17T12:33:53;17.10;57.30
33827;DHT22;20128;45.582;5.298;2023-05-17T12:36:19;17.10;57.40
33827;DHT22;20128;45.582;5.298;2023-05-17T12:38:46;17.20;57.50
33827;DHT22;20128;45.582;5.298;2023-05-17T12:41:14;17.20;57.20
33827;DHT22;20128;45.582;5.298;2023-05-17T12:43:43;17.10;56.10
33827;DHT22;20128;45.582;5.298;2023-05-17T12:46:12;17.10;56.90
33827;DHT22;20128;45.582;5.298;2023-05-17T12:48:39;17.10;57.30
33827;DHT22;20128;45.582;5.298;2023-05-17T12:51:16;17.10;56.80
33827;DHT22;20128;45.582;5.298;2023-05-17T12:53:47;17.10;56.80
33827;DHT22;20128;45.582;5.298;2023-05-17T12:59:15;17.00;56.00
33827;DHT22;20128;45.582;5.298;2023-05-17T13:01:45;16.90;56.00
33827;DHT22;20128;45.582;5.298;2023-05-17T13:04:12;16.90;56.60
33827;DHT22;20128;45.582;5.298;2023-05-17T13:07:07;17.00;57.30
33827;DHT22;20128;45.582;5.298;2023-05-17T13:09:33;17.00;57.00
33827;DHT22;20128;45.582;5.298;2023-05-17T13:12:09;17.00;56.50
33827;DHT22;20128;45.582;5.298;2023-05-17T13:17:10;17.00;55.80
33827;DHT22;20128;45.582;5.298;2023-05-17T13:19:36;17.00;56.00
33827;DHT22;20128;45.582;5.298;2023-05-17T13:22:03;17.10;56.40
33827;DHT22;20128;45.582;5.298;2023-05-17T13:24:38;17.10;56.20
33827;DHT22;20128;45.582;5.298;2023-05-17T13:27:05;17.10;56.60
33827;DHT22;20128;45.582;5.298;2023-05-17T13:29:32;17.00;56.10
33827;DHT22;20128;45.582;5.298;2023-05-17T13:31:58;17.00;55.90
33827;DHT22;20128;45.582;5.298;2023-05-17T13:34:23;17.10;55.90
33827;DHT22;20128;45.582;5.298;2023-05-17T13:36:49;17.10;56.30
33827;DHT22;20128;45.582;5.298;2023-05-17T13:39:15;17.10;56.00
33827;DHT22;20128;45.582;5.298;2023-05-17T13:41:41;17.10;55.90
33827;DHT22;20128;45.582;5.298;2023-05-17T13:44:08;17.10;56.10
33827;DHT22;20128;45.582;5.298;2023-05-17T13:46:33;17.10;56.40
33827;DHT22;20128;45.582;5.298;2023-05-17T13:48:59;17.20;56.50
33827;DHT22;20128;45.582;5.298;2023-05-17T13:51:26;17.20;55.90
33827;DHT22;20128;45.582;5.298;2023-05-17T13:53:52;17.20;56.40
33827;DHT22;20128;45.582;5.298;2023-05-17T13:56:18;17.20;55.90
33827;DHT22;20128;45.582;5.298;2023-05-17T13:58:44;17.20;55.70
33827;DHT22;20128;45.582;5.298;2023-05-17T14:01:10;17.20;55.50
33827;DHT22;20128;45.582;5.298;2023-05-17T14:03:35;17.20;55.30
33827;DHT22;20128;45.582;5.298;2023-05-17T14:06:04;17.20;55.50
33827;DHT22;20128;45.582;5.298;2023-05-17T14:08:30;17.20;55.50
33827;DHT22;20128;45.582;5.298;2023-05-17T14:10:56;17.20;55.50
33827;DHT22;20128;45.582;5.298;2023-05-17T14:13:21;17.20;55.40
33827;DHT22;20128;45.582;5.298;2023-05-17T14:15:47;17.20;55.40
33827;DHT22;20128;45.582;5.298;2023-05-17T14:18:13;17.30;55.50
33827;DHT22;20128;45.582;5.298;2023-05-17T14:20:38;17.30;55.20
33827;DHT22;20128;45.582;5.298;2023-05-17T14:23:04;17.30;54.80
33827;DHT22;20128;45.582;5.298;2023-05-17T14:25:30;17.30;55.20
33827;DHT22;20128;45.582;5.298;2023-05-17T14:27:56;17.20;55.10
33827;DHT22;20128;45.582;5.298;2023-05-17T14:30:23;17.30;54.80
33827;DHT22;20128;45.582;5.298;2023-05-17T14:32:49;17.30;55.10
33827;DHT22;20128;45.582;5.298;2023-05-17T14:35:15;17.30;55.00
33827;DHT22;20128;45.582;5.298;2023-05-17T14:37:44;17.30;56.00
33827;DHT22;20128;45.582;5.298;2023-05-17T14:40:10;17.40;55.40
33827;DHT22;20128;45.582;5.298;2023-05-17T14:42:36;17.40;55.30
33827;DHT22;20128;45.582;5.298;2023-05-17T14:45:02;17.40;55.10
33827;DHT22;20128;45.582;5.298;2023-05-17T14:47:28;17.40;55.10
33827;DHT22;20128;45.582;5.298;2023-05-17T14:49:54;17.40;54.50
33827;DHT22;20128;45.582;5.298;2023-05-17T14:52:19;17.40;54.60
33827;DHT22;20128;45.582;5.298;2023-05-17T14:54:45;17.40;52.80
33827;DHT22;20128;45.582;5.298;2023-05-17T14:57:10;17.40;53.30
33827;DHT22;20128;45.582;5.298;2023-05-17T14:59:36;17.40;53.50
33827;DHT22;20128;45.582;5.298;2023-05-17T15:02:03;17.40;54.70
33827;DHT22;20128;45.582;5.298;2023-05-17T15:04:29;17.40;53.60
33827;DHT22;20128;45.582;5.298;2023-05-17T15:06:55;17.40;53.80
33827;DHT22;20128;45.582;5.298;2023-05-17T15:09:20;17.40;53.30
33827;DHT22;20128;45.582;5.298;2023-05-17T15:11:49;17.40;54.10
33827;DHT22;20128;45.582;5.298;2023-05-17T15:14:15;17.50;53.60
33827;DHT22;20128;45.582;5.298;2023-05-17T15:16:46;17.50;53.60
33827;DHT22;20128;45.582;5.298;2023-05-17T15:19:13;17.50;53.60
33827;DHT22;20128;45.582;5.298;2023-05-17T15:21:38;17.50;53.10
33827;DHT22;20128;45.582;5.298;2023-05-17T15:24:04;17.50;53.70
33827;DHT22;20128;45.582;5.298;2023-05-17T15:26:30;17.50;53.90
33827;DHT22;20128;45.582;5.298;2023-05-17T15:28:56;17.50;52.90
33827;DHT22;20128;45.582;5.298;2023-05-17T15:31:22;17.50;53.40
33827;DHT22;20128;45.582;5.298;2023-05-17T15:33:49;17.50;52.90
33827;DHT22;20128;45.582;5.298;2023-05-17T15:36:15;17.50;52.90
33827;DHT22;20128;45.582;5.298;2023-05-17T15:38:41;17.50;52.40
33827;DHT22;20128;45.582;5.298;2023-05-17T15:41:10;17.40;52.40
33827;DHT22;20128;45.582;5.298;2023-05-17T15:43:37;17.50;53.10
33827;DHT22;20128;45.582;5.298;2023-05-17T15:46:03;17.40;52.70
33827;DHT22;20128;45.582;5.298;2023-05-17T15:48:28;17.40;53.40
33827;DHT22;20128;45.582;5.298;2023-05-17T15:50:54;17.40;52.70
33827;DHT22;20128;45.582;5.298;2023-05-17T15:53:21;17.40;52.50
33827;DHT22;20128;45.582;5.298;2023-05-17T15:55:47;17.40;52.40